sensor_id;sensor_type;location;lat;lon;timestamp;pressure;altitude;pressure_sealevel;temperature;humidity
51530;BME280;37613;51.788;21.582;2022-11-20T00:01:32;100055.08;;;-7.32;86.78
51530;BME280;37613;51.788;21.582;2022-11-20T00:05:33;100053.02;;;-7.36;86.67
51530;BME280;37613;51.788;21.582;2022-11-20T00:09:37;100054.64;;;-7.44;86.49
51530;BME280;37613;51.788;21.582;2022-11-20T00:13:38;100055.56;;;-7.53;86.45
51530;BME280;37613;51.788;21.582;2022-11-20T00:17:39;100052.61;;;-7.61;86.51
51530;BME280;37613;51.788;21.582;2022-11-20T00:21:41;100055.21;;;-7.66;86.67
51530;BME280;37613;51.788;21.582;2022-11-20T00:25:42;100052.24;;;-7.70;86.60
51530;BME280;37613;51.788;21.582;2022-11-20T00:29:43;100051.52;;;-7.77;86.51
51530;BME280;37613;51.788;21.582;2022-11-20T00:33:44;100046.29;;;-7.81;86.52
51530;BME280;37613;51.788;21.582;2022-11-20T00:37:46;100041.88;;;-7.88;86.64
51530;BME280;37613;51.788;21.582;2022-11-20T00:41:47;100048.52;;;-7.86;87.07
51530;BME280;37613;51.788;21.582;2022-11-20T00:45:48;100052.55;;;-7.84;87.15
51530;BME280;37613;51.788;21.582;2022-11-20T00:49:49;100047.15;;;-7.82;87.27
51530;BME280;37613;51.788;21.582;2022-11-20T00:53:50;100047.30;;;-7.80;87.31
51530;BME280;37613;51.788;21.582;2022-11-20T00:57:52;100042.30;;;-7.78;87.62
51530;BME280;37613;51.788;21.582;2022-11-20T01:01:53;100032.67;;;-7.78;87.26
51530;BME280;37613;51.788;21.582;2022-11-20T01:05:59;100033.37;;;-7.78;87.25
51530;BME280;37613;51.788;21.582;2022-11-20T01:10:00;100025.42;;;-7.79;87.26
51530;BME280;37613;51.788;21.582;2022-11-20T01:14:02;100026.09;;;-7.82;87.22
51530;BME280;37613;51.788;21.582;2022-11-20T01:18:03;100020.15;;;-7.85;87.17
51530;BME280;37613;51.788;21.582;2022-11-20T01:22:06;100022.87;;;-7.91;87.05
51530;BME280;37613;51.788;21.582;2022-11-20T01:26:08;100024.51;;;-7.97;86.97
51530;BME280;37613;51.788;21.582;2022-11-20T01:30:10;100023.73;;;-8.01;86.97
51530;BME280;37613;51.788;21.582;2022-11-20T01:34:13;100021.72;;;-8.07;86.87
51530;BME280;37613;51.788;21.582;2022-11-20T01:38:15;100011.54;;;-8.12;86.86
51530;BME280;37613;51.788;21.582;2022-11-20T01:42:16;100012.43;;;-8.16;86.94
51530;BME280;37613;51.788;21.582;2022-11-20T01:46:37;100008.19;;;-8.20;87.00
51530;BME280;37613;51.788;21.582;2022-11-20T01:50:39;100008.85;;;-8.21;86.91
51530;BME280;37613;51.788;21.582;2022-11-20T01:54:42;100005.92;;;-8.24;87.04
51530;BME280;37613;51.788;21.582;2022-11-20T01:58:50;99996.71;;;-8.30;87.07
51530;BME280;37613;51.788;21.582;2022-11-20T02:03:03;99998.05;;;-8.29;87.00
51530;BME280;37613;51.788;21.582;2022-11-20T02:07:06;99995.48;;;-8.31;87.18
51530;BME280;37613;51.788;21.582;2022-11-20T02:11:08;99997.16;;;-8.32;87.34
51530;BME280;37613;51.788;21.582;2022-11-20T02:15:09;100000.86;;;-8.31;87.35
51530;BME280;37613;51.788;21.582;2022-11-20T02:19:30;100000.09;;;-8.30;87.32
51530;BME280;37613;51.788;21.582;2022-11-20T02:23:39;99996.80;;;-8.29;87.41
51530;BME280;37613;51.788;21.582;2022-11-20T02:27:41;99998.00;;;-8.29;87.29
51530;BME280;37613;51.788;21.582;2022-11-20T02:31:42;100003.86;;;-8.31;87.14
51530;BME280;37613;51.788;21.582;2022-11-20T02:35:45;100002.08;;;-8.33;87.12
51530;BME280;37613;51.788;21.582;2022-11-20T02:39:47;100004.33;;;-8.29;87.31
51530;BME280;37613;51.788;21.582;2022-11-20T02:43:50;99998.14;;;-8.28;87.33
51530;BME280;37613;51.788;21.582;2022-11-20T02:47:51;99995.38;;;-8.30;87.23
51530;BME280;37613;51.788;21.582;2022-11-20T02:51:52;99994.04;;;-8.30;87.23
51530;BME280;37613;51.788;21.582;2022-11-20T02:55:53;99995.58;;;-8.37;87.19
51530;BME280;37613;51.788;21.582;2022-11-20T02:59:54;100004.62;;;-8.34;87.27
51530;BME280;37613;51.788;21.582;2022-11-20T03:03:59;99999.62;;;-8.31;87.49
51530;BME280;37613;51.788;21.582;2022-11-20T03:08:01;99999.09;;;-8.32;87.34
51530;BME280;37613;51.788;21.582;2022-11-20T03:12:02;99990.98;;;-8.38;87.14
51530;BME280;37613;51.788;21.582;2022-11-20T03:16:07;99987.45;;;-8.40;87.27
51530;BME280;37613;51.788;21.582;2022-11-20T03:20:09;99985.39;;;-8.40;87.39
51530;BME280;37613;51.788;21.582;2022-11-20T03:24:10;99982.73;;;-8.41;87.53
51530;BME280;37613;51.788;21.582;2022-11-20T03:28:11;99981.64;;;-8.37;87.62
51530;BME280;37613;51.788;21.582;2022-11-20T03:32:12;99981.88;;;-8.34;87.61
51530;BME280;37613;51.788;21.582;2022-11-20T03:36:14;99978.37;;;-8.32;87.58
51530;BME280;37613;51.788;21.582;2022-11-20T03:40:15;99978.52;;;-8.31;87.64
51530;BME280;37613;51.788;21.582;2022-11-20T03:44:16;99978.41;;;-8.31;87.52
51530;BME280;37613;51.788;21.582;2022-11-20T03:48:17;99976.67;;;-8.28;87.64
51530;BME280;37613;51.788;21.582;2022-11-20T03:52:18;99978.51;;;-8.29;87.54
51530;BME280;37613;51.788;21.582;2022-11-20T03:56:22;99982.17;;;-8.32;87.51
51530;BME280;37613;51.788;21.582;2022-11-20T04:00:24;99979.14;;;-8.35;87.42
51530;BME280;37613;51.788;21.582;2022-11-20T04:04:25;99977.30;;;-8.39;87.67
51530;BME280;37613;51.788;21.582;2022-11-20T04:08:27;99979.17;;;-8.41;87.58
51530;BME280;37613;51.788;21.582;2022-11-20T04:12:31;99977.62;;;-8.41;87.64
51530;BME280;37613;51.788;21.582;2022-11-20T04:16:34;99974.45;;;-8.42;87.62
51530;BME280;37613;51.788;21.582;2022-11-20T04:20:36;99973.81;;;-8.43;87.62
51530;BME280;37613;51.788;21.582;2022-11-20T04:24:37;99965.03;;;-8.45;87.62
51530;BME280;37613;51.788;21.582;2022-11-20T04:28:38;99965.10;;;-8.46;87.72
51530;BME280;37613;51.788;21.582;2022-11-20T04:32:39;99959.42;;;-8.43;87.80
51530;BME280;37613;51.788;21.582;2022-11-20T04:36:40;99955.52;;;-8.38;87.99
51530;BME280;37613;51.788;21.582;2022-11-20T04:40:43;99953.58;;;-8.38;87.78
51530;BME280;37613;51.788;21.582;2022-11-20T04:44:44;99946.17;;;-8.40;87.60
51530;BME280;37613;51.788;21.582;2022-11-20T04:48:45;99936.61;;;-8.39;87.76
51530;BME280;37613;51.788;21.582;2022-11-20T04:52:47;99930.34;;;-8.38;87.71
51530;BME280;37613;51.788;21.582;2022-11-20T04:56:49;99928.23;;;-8.40;87.54
51530;BME280;37613;51.788;21.582;2022-11-20T05:00:50;99925.02;;;-8.40;87.61
51530;BME280;37613;51.788;21.582;2022-11-20T05:04:53;99915.36;;;-8.40;87.76
51530;BME280;37613;51.788;21.582;2022-11-20T05:08:54;99917.30;;;-8.38;87.70
51530;BME280;37613;51.788;21.582;2022-11-20T05:12:56;99912.60;;;-8.37;87.72
51530;BME280;37613;51.788;21.582;2022-11-20T05:16:57;99911.38;;;-8.37;87.75
51530;BME280;37613;51.788;21.582;2022-11-20T05:20:58;99909.77;;;-8.39;87.58
51530;BME280;37613;51.788;21.582;2022-11-20T05:25:00;99911.95;;;-8.44;87.51
51530;BME280;37613;51.788;21.582;2022-11-20T05:29:01;99912.40;;;-8.48;87.57
51530;BME280;37613;51.788;21.582;2022-11-20T05:33:02;99910.62;;;-8.49;87.59
51530;BME280;37613;51.788;21.582;2022-11-20T05:37:03;99906.80;;;-8.46;87.75
51530;BME280;37613;51.788;21.582;2022-11-20T05:41:05;99909.84;;;-8.42;88.07
51530;BME280;37613;51.788;21.582;2022-11-20T05:45:07;99910.95;;;-8.38;87.97
51530;BME280;37613;51.788;21.582;2022-11-20T05:49:08;99903.50;;;-8.40;87.79
51530;BME280;37613;51.788;21.582;2022-11-20T05:53:09;99896.27;;;-8.46;87.79
51530;BME280;37613;51.788;21.582;2022-11-20T05:57:10;99907.46;;;-8.41;87.93
51530;BME280;37613;51.788;21.582;2022-11-20T06:01:19;99908.27;;;-8.38;87.93
51530;BME280;37613;51.788;21.582;2022-11-20T06:05:20;99905.27;;;-8.38;87.91
51530;BME280;37613;51.788;21.582;2022-11-20T06:09:24;99900.27;;;-8.38;88.03
51530;BME280;37613;51.788;21.582;2022-11-20T06:13:31;99896.72;;;-8.33;88.12
51530;BME280;37613;51.788;21.582;2022-11-20T06:17:32;99901.58;;;-8.28;88.11
51530;BME280;37613;51.788;21.582;2022-11-20T06:21:33;99905.16;;;-8.27;87.90
51530;BME280;37613;51.788;21.582;2022-11-20T06:25:41;99906.39;;;-8.27;87.92
51530;BME280;37613;51.788;21.582;2022-11-20T06:29:42;99899.50;;;-8.23;88.07
51530;BME280;37613;51.788;21.582;2022-11-20T06:33:43;99892.98;;;-8.11;88.53
51530;BME280;37613;51.788;21.582;2022-11-20T06:37:48;99895.02;;;-7.93;88.71
51530;BME280;37613;51.788;21.582;2022-11-20T06:41:49;99887.86;;;-7.83;88.43
51530;BME280;37613;51.788;21.582;2022-11-20T06:45:53;99890.19;;;-7.78;88.31
51530;BME280;37613;51.788;21.582;2022-11-20T06:49:55;99898.33;;;-7.69;88.55
51530;BME280;37613;51.788;21.582;2022-11-20T06:53:56;99894.41;;;-7.58;88.77
51530;BME280;37613;51.788;21.582;2022-11-20T06:57:57;99892.98;;;-7.44;88.90
51530;BME280;37613;51.788;21.582;2022-11-20T07:01:59;99884.77;;;-7.28;89.10
51530;BME280;37613;51.788;21.582;2022-11-20T07:06:00;99891.52;;;-7.11;89.05
51530;BME280;37613;51.788;21.582;2022-11-20T07:10:02;99894.86;;;-6.91;89.24
51530;BME280;37613;51.788;21.582;2022-11-20T07:14:03;99892.09;;;-6.73;89.24
51530;BME280;37613;51.788;21.582;2022-11-20T07:18:07;99885.21;;;-6.54;89.30
51530;BME280;37613;51.788;21.582;2022-11-20T07:22:08;99884.55;;;-6.32;89.46
51530;BME280;37613;51.788;21.582;2022-11-20T07:26:10;99888.01;;;-6.08;89.67
51530;BME280;37613;51.788;21.582;2022-11-20T07:30:12;99878.17;;;-5.83;89.92
51530;BME280;37613;51.788;21.582;2022-11-20T07:34:13;99873.73;;;-5.51;90.10
51530;BME280;37613;51.788;21.582;2022-11-20T07:38:17;99871.12;;;-5.17;90.36
51530;BME280;37613;51.788;21.582;2022-11-20T07:42:18;99867.13;;;-4.91;89.83
51530;BME280;37613;51.788;21.582;2022-11-20T07:46:20;99863.54;;;-4.73;89.69
51530;BME280;37613;51.788;21.582;2022-11-20T07:50:21;99864.91;;;-4.56;89.70
51530;BME280;37613;51.788;21.582;2022-11-20T07:54:22;99863.95;;;-4.35;89.71
51530;BME280;37613;51.788;21.582;2022-11-20T07:58:23;99867.75;;;-4.16;89.66
51530;BME280;37613;51.788;21.582;2022-11-20T08:02:25;99866.25;;;-3.95;89.63
51530;BME280;37613;51.788;21.582;2022-11-20T08:06:26;99869.34;;;-3.75;89.72
51530;BME280;37613;51.788;21.582;2022-11-20T08:10:27;99869.32;;;-3.54;89.97
51530;BME280;37613;51.788;21.582;2022-11-20T08:14:28;99870.38;;;-3.33;90.18
51530;BME280;37613;51.788;21.582;2022-11-20T08:18:29;99867.98;;;-3.16;89.68
51530;BME280;37613;51.788;21.582;2022-11-20T08:22:30;99870.42;;;-2.99;89.75
51530;BME280;37613;51.788;21.582;2022-11-20T08:26:32;99872.71;;;-2.85;89.27
51530;BME280;37613;51.788;21.582;2022-11-20T08:30:33;99869.63;;;-2.70;89.21
51530;BME280;37613;51.788;21.582;2022-11-20T08:34:34;99860.83;;;-2.53;89.63
51530;BME280;37613;51.788;21.582;2022-11-20T08:38:36;99860.59;;;-2.36;89.81
51530;BME280;37613;51.788;21.582;2022-11-20T08:42:37;99864.45;;;-2.16;90.20
51530;BME280;37613;51.788;21.582;2022-11-20T08:46:39;99860.64;;;-1.96;90.26
51530;BME280;37613;51.788;21.582;2022-11-20T08:50:41;99855.73;;;-1.78;90.16
51530;BME280;37613;51.788;21.582;2022-11-20T08:54:42;99849.30;;;-1.70;89.85
51530;BME280;37613;51.788;21.582;2022-11-20T08:58:43;99844.77;;;-1.72;89.31
51530;BME280;37613;51.788;21.582;2022-11-20T09:02:46;99847.21;;;-1.65;89.86
51530;BME280;37613;51.788;21.582;2022-11-20T09:06:47;99840.70;;;-1.64;89.90
51530;BME280;37613;51.788;21.582;2022-11-20T09:10:55;99828.79;;;-1.60;90.05
51530;BME280;37613;51.788;21.582;2022-11-20T09:14:56;99823.55;;;-1.51;90.04
51530;BME280;37613;51.788;21.582;2022-11-20T09:18:57;99817.08;;;-1.51;89.76
51530;BME280;37613;51.788;21.582;2022-11-20T09:22:58;99814.75;;;-1.51;89.63
51530;BME280;37613;51.788;21.582;2022-11-20T09:27:02;99806.10;;;-1.54;89.53
51530;BME280;37613;51.788;21.582;2022-11-20T09:31:07;99810.27;;;-1.49;89.25
51530;BME280;37613;51.788;21.582;2022-11-20T09:35:09;99809.56;;;-1.47;89.43
51530;BME280;37613;51.788;21.582;2022-11-20T09:39:11;99807.31;;;-1.43;89.46
51530;BME280;37613;51.788;21.582;2022-11-20T09:43:13;99803.75;;;-1.36;89.54
51530;BME280;37613;51.788;21.582;2022-11-20T09:47:42;99805.03;;;-1.32;89.47
51530;BME280;37613;51.788;21.582;2022-11-20T09:52:32;99799.03;;;-1.31;89.20
51530;BME280;37613;51.788;21.582;2022-11-20T09:56:13;99792.36;;;-1.33;89.10
51530;BME280;37613;51.788;21.582;2022-11-20T10:00:18;99782.52;;;-1.31;89.07
51530;BME280;37613;51.788;21.582;2022-11-20T10:04:22;99781.98;;;-1.31;88.86
51530;BME280;37613;51.788;21.582;2022-11-20T10:24:56;99777.06;;;-0.74;89.27
51530;BME280;37613;51.788;21.582;2022-11-20T10:29:18;99771.14;;;-0.81;88.89
51530;BME280;37613;51.788;21.582;2022-11-20T10:33:21;99771.34;;;-0.84;88.82
51530;BME280;37613;51.788;21.582;2022-11-20T10:37:27;99767.80;;;-0.81;88.81
51530;BME280;37613;51.788;21.582;2022-11-20T10:41:34;99756.04;;;-0.76;88.71
51530;BME280;37613;51.788;21.582;2022-11-20T10:49:46;99754.97;;;-0.57;88.88
51530;BME280;37613;51.788;21.582;2022-11-20T11:02:24;99750.95;;;-0.56;87.84
51530;BME280;37613;51.788;21.582;2022-11-20T11:06:38;99750.33;;;-0.65;87.95
51530;BME280;37613;51.788;21.582;2022-11-20T11:10:44;99752.63;;;-0.68;87.96
51530;BME280;37613;51.788;21.582;2022-11-20T11:14:51;99754.04;;;-0.67;88.04
51530;BME280;37613;51.788;21.582;2022-11-20T11:19:03;99749.16;;;-0.67;88.04
51530;BME280;37613;51.788;21.582;2022-11-20T11:23:04;99748.30;;;-0.71;87.95
51530;BME280;37613;51.788;21.582;2022-11-20T11:27:11;99754.05;;;-0.79;87.69
51530;BME280;37613;51.788;21.582;2022-11-20T11:31:21;99751.97;;;-0.83;87.68
51530;BME280;37613;51.788;21.582;2022-11-20T11:35:26;99739.84;;;-0.81;87.94
51530;BME280;37613;51.788;21.582;2022-11-20T11:39:28;99732.65;;;-0.77;88.13
51530;BME280;37613;51.788;21.582;2022-11-20T11:43:34;99734.09;;;-0.76;87.81
51530;BME280;37613;51.788;21.582;2022-11-20T11:47:56;99730.78;;;-0.79;87.70
51530;BME280;37613;51.788;21.582;2022-11-20T12:00:02;99727.42;;;-1.02;87.24
51530;BME280;37613;51.788;21.582;2022-11-20T12:04:05;99720.73;;;-1.15;87.36
51530;BME280;37613;51.788;21.582;2022-11-20T12:12:20;99719.77;;;-1.28;87.38
51530;BME280;37613;51.788;21.582;2022-11-20T12:16:23;99716.83;;;-1.33;87.37
51530;BME280;37613;51.788;21.582;2022-11-20T12:20:29;99718.65;;;-1.38;87.48
51530;BME280;37613;51.788;21.582;2022-11-20T12:28:51;99697.00;;;-1.43;87.69
51530;BME280;37613;51.788;21.582;2022-11-20T12:33:17;99686.22;;;-1.43;87.70
51530;BME280;37613;51.788;21.582;2022-11-20T12:46:05;99682.66;;;-1.42;87.57
51530;BME280;37613;51.788;21.582;2022-11-20T12:50:44;99686.59;;;-1.45;87.69
51530;BME280;37613;51.788;21.582;2022-11-20T12:54:50;99688.33;;;-1.48;87.68
51530;BME280;37613;51.788;21.582;2022-11-20T13:03:06;99671.04;;;-1.52;87.76
51530;BME280;37613;51.788;21.582;2022-11-20T13:07:14;99665.05;;;-1.54;87.57
51530;BME280;37613;51.788;21.582;2022-11-20T13:19:54;99664.98;;;-1.74;87.47
51530;BME280;37613;51.788;21.582;2022-11-20T13:24:03;99666.29;;;-1.76;87.63
51530;BME280;37613;51.788;21.582;2022-11-20T13:28:26;99662.48;;;-1.80;87.87
51530;BME280;37613;51.788;21.582;2022-11-20T13:32:26;99663.77;;;-1.81;87.85
51530;BME280;37613;51.788;21.582;2022-11-20T13:36:33;99663.82;;;-1.82;87.70
51530;BME280;37613;51.788;21.582;2022-11-20T13:40:38;99663.53;;;-1.88;87.66
51530;BME280;37613;51.788;21.582;2022-11-20T13:44:54;99671.92;;;-1.96;87.71
51530;BME280;37613;51.788;21.582;2022-11-20T13:48:55;99662.04;;;-2.08;87.82
51530;BME280;37613;51.788;21.582;2022-11-20T13:53:00;99671.59;;;-2.08;87.93
51530;BME280;37613;51.788;21.582;2022-11-20T13:57:25;99669.02;;;-2.14;87.87
51530;BME280;37613;51.788;21.582;2022-11-20T14:01:31;99666.19;;;-2.20;88.00
51530;BME280;37613;51.788;21.582;2022-11-20T14:05:35;99665.27;;;-2.23;88.03
51530;BME280;37613;51.788;21.582;2022-11-20T14:09:37;99667.98;;;-2.25;88.37
51530;BME280;37613;51.788;21.582;2022-11-20T14:14:01;99655.33;;;-2.26;88.15
51530;BME280;37613;51.788;21.582;2022-11-20T14:18:19;99644.81;;;-2.28;88.42
51530;BME280;37613;51.788;21.582;2022-11-20T14:22:23;99638.95;;;-2.29;88.43
51530;BME280;37613;51.788;21.582;2022-11-20T14:26:28;99637.10;;;-2.29;88.45
51530;BME280;37613;51.788;21.582;2022-11-20T14:34:41;99647.89;;;-2.30;88.35
51530;BME280;37613;51.788;21.582;2022-11-20T14:38:46;99652.20;;;-2.31;88.37
51530;BME280;37613;51.788;21.582;2022-11-20T14:42:48;99651.62;;;-2.33;88.57
51530;BME280;37613;51.788;21.582;2022-11-20T14:46:51;99643.28;;;-2.37;89.06
51530;BME280;37613;51.788;21.582;2022-11-20T14:50:54;99632.30;;;-2.38;89.01
51530;BME280;37613;51.788;21.582;2022-11-20T14:54:59;99626.55;;;-2.38;88.93
51530;BME280;37613;51.788;21.582;2022-11-20T14:59:03;99619.08;;;-2.40;88.87
51530;BME280;37613;51.788;21.582;2022-11-20T15:03:13;99615.20;;;-2.41;88.94
51530;BME280;37613;51.788;21.582;2022-11-20T15:07:31;99615.55;;;-2.42;88.74
51530;BME280;37613;51.788;21.582;2022-11-20T15:11:33;99610.50;;;-2.41;88.79
51530;BME280;37613;51.788;21.582;2022-11-20T15:15:39;99601.95;;;-2.42;88.72
51530;BME280;37613;51.788;21.582;2022-11-20T15:19:43;99594.00;;;-2.45;89.23
51530;BME280;37613;51.788;21.582;2022-11-20T15:23:45;99593.23;;;-2.46;89.12
51530;BME280;37613;51.788;21.582;2022-11-20T15:27:48;99592.45;;;-2.47;88.96
51530;BME280;37613;51.788;21.582;2022-11-20T15:31:52;99581.11;;;-2.48;89.24
51530;BME280;37613;51.788;21.582;2022-11-20T15:35:55;99575.73;;;-2.50;89.19
51530;BME280;37613;51.788;21.582;2022-11-20T15:39:58;99571.32;;;-2.52;89.16
51530;BME280;37613;51.788;21.582;2022-11-20T15:44:05;99569.52;;;-2.51;89.15
51530;BME280;37613;51.788;21.582;2022-11-20T15:48:51;99571.93;;;-2.53;88.91
51530;BME280;37613;51.788;21.582;2022-11-20T15:52:31;99568.85;;;-2.58;88.89
51530;BME280;37613;51.788;21.582;2022-11-20T15:56:33;99570.61;;;-2.60;88.84
51530;BME280;37613;51.788;21.582;2022-11-20T16:00:35;99567.95;;;-2.65;88.89
51530;BME280;37613;51.788;21.582;2022-11-20T16:04:37;99563.57;;;-2.71;88.75
51530;BME280;37613;51.788;21.582;2022-11-20T16:08:38;99565.12;;;-2.78;88.71
51530;BME280;37613;51.788;21.582;2022-11-20T16:12:40;99569.27;;;-2.86;88.68
51530;BME280;37613;51.788;21.582;2022-11-20T16:17:01;99570.17;;;-2.95;88.56
51530;BME280;37613;51.788;21.582;2022-11-20T16:21:03;99574.52;;;-3.06;88.54
51530;BME280;37613;51.788;21.582;2022-11-20T16:25:04;99570.02;;;-3.17;88.45
51530;BME280;37613;51.788;21.582;2022-11-20T16:29:06;99575.45;;;-3.27;88.41
51530;BME280;37613;51.788;21.582;2022-11-20T16:33:15;99581.05;;;-3.37;88.50
51530;BME280;37613;51.788;21.582;2022-11-20T16:37:16;99582.59;;;-3.46;88.47
51530;BME280;37613;51.788;21.582;2022-11-20T16:41:18;99585.66;;;-3.52;88.45
51530;BME280;37613;51.788;21.582;2022-11-20T16:45:20;99579.23;;;-3.60;88.40
51530;BME280;37613;51.788;21.582;2022-11-20T16:49:22;99583.54;;;-3.67;88.42
51530;BME280;37613;51.788;21.582;2022-11-20T16:53:25;99579.65;;;-3.72;88.48
51530;BME280;37613;51.788;21.582;2022-11-20T16:57:30;99572.33;;;-3.79;88.54
51530;BME280;37613;51.788;21.582;2022-11-20T17:01:33;99564.14;;;-3.85;88.53
51530;BME280;37613;51.788;21.582;2022-11-20T17:05:39;99555.70;;;-3.94;88.51
51530;BME280;37613;51.788;21.582;2022-11-20T17:09:41;99554.34;;;-3.98;88.65
51530;BME280;37613;51.788;21.582;2022-11-20T17:13:43;99554.38;;;-4.03;88.70
51530;BME280;37613;51.788;21.582;2022-11-20T17:17:45;99550.83;;;-4.07;88.74
51530;BME280;37613;51.788;21.582;2022-11-20T17:21:47;99543.73;;;-4.12;88.86
51530;BME280;37613;51.788;21.582;2022-11-20T17:25:49;99543.37;;;-4.15;88.86
51530;BME280;37613;51.788;21.582;2022-11-20T17:29:50;99548.52;;;-4.15;89.09
51530;BME280;37613;51.788;21.582;2022-11-20T17:33:53;99543.69;;;-4.16;89.00
51530;BME280;37613;51.788;21.582;2022-11-20T17:37:54;99549.76;;;-4.18;89.16
51530;BME280;37613;51.788;21.582;2022-11-20T17:41:55;99554.38;;;-4.21;89.05
51530;BME280;37613;51.788;21.582;2022-11-20T17:46:17;99547.18;;;-4.22;89.08
51530;BME280;37613;51.788;21.582;2022-11-20T17:50:18;99540.26;;;-4.24;89.38
51530;BME280;37613;51.788;21.582;2022-11-20T17:54:20;99539.66;;;-4.25;89.54
51530;BME280;37613;51.788;21.582;2022-11-20T17:58:22;99531.77;;;-4.27;89.30
51530;BME280;37613;51.788;21.582;2022-11-20T18:02:24;99524.86;;;-4.29;89.16
51530;BME280;37613;51.788;21.582;2022-11-20T18:06:27;99517.52;;;-4.31;89.24
51530;BME280;37613;51.788;21.582;2022-11-20T18:10:30;99505.91;;;-4.33;89.22
51530;BME280;37613;51.788;21.582;2022-11-20T18:14:32;99497.32;;;-4.36;89.23
51530;BME280;37613;51.788;21.582;2022-11-20T18:18:35;99492.07;;;-4.39;89.21
51530;BME280;37613;51.788;21.582;2022-11-20T18:22:36;99495.34;;;-4.41;89.10
51530;BME280;37613;51.788;21.582;2022-11-20T18:26:38;99491.86;;;-4.45;89.30
51530;BME280;37613;51.788;21.582;2022-11-20T18:30:40;99486.90;;;-4.47;89.28
51530;BME280;37613;51.788;21.582;2022-11-20T18:34:43;99486.31;;;-4.51;89.31
51530;BME280;37613;51.788;21.582;2022-11-20T18:38:47;99482.08;;;-4.56;89.26
51530;BME280;37613;51.788;21.582;2022-11-20T18:42:49;99482.63;;;-4.60;89.47
51530;BME280;37613;51.788;21.582;2022-11-20T18:47:10;99479.57;;;-4.65;89.72
51530;BME280;37613;51.788;21.582;2022-11-20T18:51:12;99482.34;;;-4.69;89.79
51530;BME280;37613;51.788;21.582;2022-11-20T18:55:16;99480.83;;;-4.74;89.75
51530;BME280;37613;51.788;21.582;2022-11-20T18:59:24;99475.33;;;-4.76;89.64
51530;BME280;37613;51.788;21.582;2022-11-20T19:03:27;99467.77;;;-4.78;89.51
51530;BME280;37613;51.788;21.582;2022-11-20T19:07:29;99459.79;;;-4.80;89.51
51530;BME280;37613;51.788;21.582;2022-11-20T19:11:31;99452.39;;;-4.82;89.49
51530;BME280;37613;51.788;21.582;2022-11-20T19:15:34;99449.40;;;-4.85;90.38
51530;BME280;37613;51.788;21.582;2022-11-20T19:19:38;99445.75;;;-4.86;90.07
51530;BME280;37613;51.788;21.582;2022-11-20T19:23:41;99439.09;;;-4.85;90.19
51530;BME280;37613;51.788;21.582;2022-11-20T19:27:43;99434.36;;;-4.78;90.56
51530;BME280;37613;51.788;21.582;2022-11-20T19:31:45;99433.51;;;-4.66;91.80
51530;BME280;37613;51.788;21.582;2022-11-20T19:35:47;99431.13;;;-4.55;91.56
51530;BME280;37613;51.788;21.582;2022-11-20T19:39:50;99429.86;;;-4.41;91.69
51530;BME280;37613;51.788;21.582;2022-11-20T19:43:54;99429.45;;;-4.23;91.57
51530;BME280;37613;51.788;21.582;2022-11-20T19:47:56;99425.61;;;-4.05;91.70
51530;BME280;37613;51.788;21.582;2022-11-20T19:51:58;99426.02;;;-3.89;91.51
51530;BME280;37613;51.788;21.582;2022-11-20T19:56:01;99422.52;;;-3.74;91.70
51530;BME280;37613;51.788;21.582;2022-11-20T20:00:03;99424.87;;;-3.63;91.79
51530;BME280;37613;51.788;21.582;2022-11-20T20:04:06;99430.23;;;-3.52;91.96
51530;BME280;37613;51.788;21.582;2022-11-20T20:08:07;99438.19;;;-3.35;91.85
51530;BME280;37613;51.788;21.582;2022-11-20T20:12:09;99441.00;;;-3.29;91.59
51530;BME280;37613;51.788;21.582;2022-11-20T20:16:11;99441.19;;;-3.25;91.64
51530;BME280;37613;51.788;21.582;2022-11-20T20:20:13;99445.73;;;-3.22;91.86
51530;BME280;37613;51.788;21.582;2022-11-20T20:24:15;99451.52;;;-3.18;91.81
51530;BME280;37613;51.788;21.582;2022-11-20T20:28:26;99447.79;;;-3.15;91.71
51530;BME280;37613;51.788;21.582;2022-11-20T20:32:27;99436.35;;;-3.13;91.71
51530;BME280;37613;51.788;21.582;2022-11-20T20:36:30;99431.44;;;-3.12;91.78
51530;BME280;37613;51.788;21.582;2022-11-20T20:40:32;99428.50;;;-3.12;91.80
51530;BME280;37613;51.788;21.582;2022-11-20T20:44:34;99424.85;;;-3.13;91.75
51530;BME280;37613;51.788;21.582;2022-11-20T20:48:55;99420.27;;;-3.13;91.86
51530;BME280;37613;51.788;21.582;2022-11-20T20:52:56;99419.60;;;-3.14;91.71
51530;BME280;37613;51.788;21.582;2022-11-20T20:56:58;99421.70;;;-3.16;91.69
51530;BME280;37613;51.788;21.582;2022-11-20T21:01:05;99424.48;;;-3.18;91.70
51530;BME280;37613;51.788;21.582;2022-11-20T21:05:07;99422.75;;;-3.19;91.78
51530;BME280;37613;51.788;21.582;2022-11-20T21:09:09;99426.05;;;-3.19;91.71
51530;BME280;37613;51.788;21.582;2022-11-20T21:13:10;99430.06;;;-3.21;91.77
51530;BME280;37613;51.788;21.582;2022-11-20T21:17:11;99428.46;;;-3.24;91.85
51530;BME280;37613;51.788;21.582;2022-11-20T21:21:15;99429.96;;;-3.27;91.89
51530;BME280;37613;51.788;21.582;2022-11-20T21:25:35;99432.36;;;-3.33;92.00
51530;BME280;37613;51.788;21.582;2022-11-20T21:29:37;99431.70;;;-3.37;91.81
51530;BME280;37613;51.788;21.582;2022-11-20T21:33:39;99434.06;;;-3.40;91.98
51530;BME280;37613;51.788;21.582;2022-11-20T21:37:44;99436.52;;;-3.44;92.11
51530;BME280;37613;51.788;21.582;2022-11-20T21:41:45;99429.99;;;-3.46;92.15
51530;BME280;37613;51.788;21.582;2022-11-20T21:45:47;99429.34;;;-3.48;92.12
51530;BME280;37613;51.788;21.582;2022-11-20T21:49:49;99426.96;;;-3.49;92.15
51530;BME280;37613;51.788;21.582;2022-11-20T21:53:50;99426.98;;;-3.48;92.14
51530;BME280;37613;51.788;21.582;2022-11-20T21:57:52;99424.63;;;-3.47;92.35
51530;BME280;37613;51.788;21.582;2022-11-20T22:01:54;99422.08;;;-3.47;92.38
51530;BME280;37613;51.788;21.582;2022-11-20T22:05:55;99417.02;;;-3.46;92.41
51530;BME280;37613;51.788;21.582;2022-11-20T22:09:56;99415.70;;;-3.44;92.33
51530;BME280;37613;51.788;21.582;2022-11-20T22:13:58;99416.91;;;-3.43;92.43
51530;BME280;37613;51.788;21.582;2022-11-20T22:18:18;99420.25;;;-3.43;92.40
51530;BME280;37613;51.788;21.582;2022-11-20T22:22:22;99418.89;;;-3.42;92.79